Date,TemperatureHighF,TemperatureAvgF,TemperatureLowF,DewpointHighF,DewpointAvgF,DewpointLowF,HumidityHigh,HumidityAvg,HumidityLow,PressureMaxIn,PressureMinIn,WindSpeedMaxMPH,WindSpeedAvgMPH,GustSpeedMaxMPH,PrecipitationSumIn
2013-1-1,21,15,3,21,11,1,100,85,67,30.29,30.15,13,5,0,0.00
2013-1-2,30,15,0,19,10,-2,100,81,58,30.26,30.15,12,6,0,0.00
2013-1-3,34,25,14,27,22,14,100,87,69,30.41,30.21,14,7,17,0.00
2013-1-4,36,23,12,25,19,12,100,85,64,30.41,30.29,17,8,23,0.00
2013-1-5,36,30,21,34,27,18,100,89,74,30.29,30.09,16,10,21,0.00
2013-1-6,34,26,19,30,22,16,100,83,63,30.37,30.10,20,10,25,0.00
2013-1-7,45,30,18,30,24,16,100,77,52,30.36,30.11,16,9,22,0.00
2013-1-8,48,38,28,32,28,25,86,70,49,30.15,30.04,18,9,20,0.00
2013-1-9,50,39,32,39,33,28,100,79,57,30.46,30.15,10,6,0,0.00
2013-1-10,43,39,32,41,-31,-100,100,46,74,30.44,29.77,14,8,20,0.00
2013-1-11,59,51,41,50,2,-100,100,55,67,29.83,29.69,21,15,30,0.00
2013-1-12,54,40,28,46,32,23,92,74,57,30.03,29.75,18,12,27,0.00
2013-1-13,19,17,10,14,12,9,92,80,72,30.36,30.14,14,8,17,0.00
2013-1-14,23,14,9,16,10,7,100,81,62,30.49,30.36,7,2,0,0.00
2013-1-15,25,17,7,19,13,5,100,84,73,30.42,30.17,9,1,0,0.00
2013-1-16,37,25,10,25,18,9,100,76,55,30.18,30.01,18,9,27,0.00
2013-1-17,36,30,23,28,24,21,100,80,59,30.48,30.12,14,8,18,0.00
2013-1-18,52,37,25,32,26,21,92,68,43,30.47,30.09,23,15,31,0.00
2013-1-19,55,44,36,39,33,28,75,64,53,30.18,29.94,27,16,33,0.00
2013-1-20,37,26,19,30,15,10,85,65,50,30.38,30.18,16,9,21,0.00
2013-1-21,19,15,10,12,3,-2,85,60,37,30.40,30.34,21,12,31,0.00
2013-1-22,18,13,10,10,5,0,92,71,56,30.47,30.35,8,4,0,0.00
2013-1-23,41,24,9,23,16,9,100,74,48,30.39,30.15,16,6,23,0.00
2013-1-24,23,17,9,14,7,3,84,63,48,30.58,30.24,16,12,23,0.00
2013-1-25,41,29,21,23,18,12,79,62,44,30.24,30.12,15,7,18,0.00
2013-1-26,41,29,18,23,18,12,92,65,38,30.39,30.24,13,6,0,0.00
2013-1-27,52,38,27,50,35,18,100,90,63,30.25,29.86,24,13,30,0.00
2013-1-28,72,59,50,61,48,-100,100,83,64,29.93,29.79,17,11,24,0.00
2013-1-29,64,56,48,59,-6,-100,100,52,82,29.80,29.44,22,10,31,0.00
2013-1-30,48,30,23,41,-2,-100,100,68,73,29.93,29.36,22,6,29,0.00
2013-1-31,27,17,7,19,9,-2,85,70,58,30.42,29.93,14,1,20,0.00